VOE93UU LFCR-LFST
Flight info
| Callsign | VOE93UU |
|---|---|
| Flight time | 1h 5m |
| Altitude | 34000 |
| Route | MEN DCT NINUN DCT LATAM DCT ETREK DCT LTP DCT SOPLO DCT OMASI DCT KINNI DCT GILIR/N0403F280 DCT PENDU DCT LUL |
| Aircraft | A320/M-SDFGHIJ1RWY/LB1 |
Departure
| Time | 2026-04-25 08:56 |
|---|---|
| Airport | Rodez–Aveyron Airport (LFCR) |
Arrival
| Time | 2026-04-25 10:01 |
|---|---|
| Airport | Strasbourg Airport (LFST) |
| Time | Latitude | Longitude | Altitude | Speed | Heading |
|---|---|---|---|---|---|
| 2026-04-25 08:36 | 44.40969 | 2.48367 | 1897 ft | 0 kts | 170° |
| 2026-04-25 08:51 | 44.40938 | 2.48375 | 1888 ft | 8 kts | 169° |
| 2026-04-25 08:52 | 44.40899 | 2.48414 | 1891 ft | 6 kts | 131° |
| 2026-04-25 08:52 | 44.40869 | 2.48445 | 1894 ft | 5 kts | 173° |
| 2026-04-25 08:52 | 44.40843 | 2.48434 | 1897 ft | 4 kts | 204° |
| 2026-04-25 08:52 | 44.40793 | 2.48382 | 1887 ft | 11 kts | 217° |
| 2026-04-25 08:53 | 44.40774 | 2.48299 | 1898 ft | 9 kts | 286° |
| 2026-04-25 08:53 | 44.40824 | 2.48200 | 1892 ft | 17 kts | 309° |
| 2026-04-25 08:53 | 44.40915 | 2.48046 | 1897 ft | 23 kts | 309° |
| 2026-04-25 08:53 | 44.41022 | 2.47860 | 1898 ft | 27 kts | 309° |
| 2026-04-25 08:54 | 44.41142 | 2.47654 | 1915 ft | 27 kts | 308° |
| 2026-04-25 08:54 | 44.41252 | 2.47463 | 1917 ft | 23 kts | 309° |
| 2026-04-25 08:54 | 44.41327 | 2.47350 | 1909 ft | 13 kts | 332° |
| 2026-04-25 08:54 | 44.41363 | 2.47312 | 1906 ft | 2 kts | 233° |
| 2026-04-25 08:55 | 44.41354 | 2.47307 | 1900 ft | 1 kts | 202° |
| 2026-04-25 08:55 | 44.41329 | 2.47330 | 1904 ft | 5 kts | 133° |
| 2026-04-25 08:55 | 44.41312 | 2.47361 | 1905 ft | 4 kts | 128° |
| 2026-04-25 08:55 | 44.41183 | 2.47583 | 1909 ft | 69 kts | 129° |
| 2026-04-25 08:56 | 44.40722 | 2.48384 | 1891 ft | 138 kts | 129° |
| 2026-04-25 08:56 | 44.40042 | 2.49540 | 2333 ft | 155 kts | 129° |
| 2026-04-25 08:56 | 44.39376 | 2.50663 | 3271 ft | 148 kts | 130° |
| 2026-04-25 08:56 | 44.38734 | 2.51774 | 3899 ft | 150 kts | 131° |
| 2026-04-25 08:57 | 44.38031 | 2.52986 | 4271 ft | 171 kts | 131° |
| 2026-04-25 08:57 | 44.37230 | 2.54363 | 4626 ft | 195 kts | 131° |
| 2026-04-25 08:57 | 44.36325 | 2.55918 | 5004 ft | 216 kts | 132° |
| 2026-04-25 08:57 | 44.35330 | 2.57630 | 5324 ft | 239 kts | 131° |
| 2026-04-25 08:58 | 44.34228 | 2.59525 | 5868 ft | 261 kts | 130° |
| 2026-04-25 08:58 | 44.33149 | 2.61611 | 6695 ft | 271 kts | 115° |
| 2026-04-25 08:58 | 44.32858 | 2.64228 | 7437 ft | 281 kts | 82° |
| 2026-04-25 08:58 | 44.33671 | 2.66719 | 8267 ft | 289 kts | 49° |
| 2026-04-25 08:59 | 44.35335 | 2.68278 | 9115 ft | 294 kts | 20° |
| 2026-04-25 08:59 | 44.37242 | 2.69353 | 10003 ft | 298 kts | 30° |
| 2026-04-25 08:59 | 44.38889 | 2.71183 | 10561 ft | 313 kts | 46° |
| 2026-04-25 08:59 | 44.40316 | 2.73624 | 10860 ft | 335 kts | 55° |
| 2026-04-25 09:00 | 44.41608 | 2.76392 | 11498 ft | 344 kts | 58° |
| 2026-04-25 09:00 | 44.42862 | 2.79274 | 12234 ft | 349 kts | 59° |
| 2026-04-25 09:00 | 44.44138 | 2.82182 | 12994 ft | 354 kts | 57° |
| 2026-04-25 09:00 | 44.45477 | 2.85108 | 13743 ft | 359 kts | 56° |
| 2026-04-25 09:01 | 44.46869 | 2.88025 | 14429 ft | 363 kts | 55° |
| 2026-04-25 09:01 | 44.48306 | 2.90950 | 15116 ft | 366 kts | 54° |
| 2026-04-25 09:01 | 44.49749 | 2.93844 | 15785 ft | 369 kts | 53° |
| 2026-04-25 09:01 | 44.51244 | 2.96832 | 16500 ft | 372 kts | 53° |
| 2026-04-25 09:02 | 44.52735 | 2.99812 | 17193 ft | 374 kts | 53° |
| 2026-04-25 09:02 | 44.54212 | 3.02777 | 17906 ft | 377 kts | 53° |
| 2026-04-25 09:02 | 44.55715 | 3.05808 | 18571 ft | 380 kts | 53° |
| 2026-04-25 09:02 | 44.57221 | 3.08858 | 19147 ft | 382 kts | 53° |
| 2026-04-25 09:03 | 44.58755 | 3.11980 | 19713 ft | 385 kts | 53° |
| 2026-04-25 09:03 | 44.60257 | 3.15049 | 20277 ft | 388 kts | 53° |
| 2026-04-25 09:03 | 44.61671 | 3.18294 | 20822 ft | 392 kts | 58° |
| 2026-04-25 09:03 | 44.63017 | 3.21648 | 21349 ft | 395 kts | 58° |
| 2026-04-25 09:04 | 44.64371 | 3.25021 | 21892 ft | 399 kts | 58° |
| 2026-04-25 09:04 | 44.65739 | 3.28428 | 22409 ft | 402 kts | 58° |
| 2026-04-25 09:04 | 44.67115 | 3.31855 | 22926 ft | 405 kts | 58° |
| 2026-04-25 09:04 | 44.68504 | 3.35317 | 23429 ft | 408 kts | 58° |
| 2026-04-25 09:05 | 44.69900 | 3.38807 | 23887 ft | 411 kts | 58° |
| 2026-04-25 09:05 | 44.71308 | 3.42331 | 24302 ft | 414 kts | 58° |
| 2026-04-25 09:05 | 44.72719 | 3.45866 | 24751 ft | 416 kts | 58° |
| 2026-04-25 09:05 | 44.74137 | 3.49431 | 25170 ft | 419 kts | 58° |
| 2026-04-25 09:06 | 44.75560 | 3.53018 | 25581 ft | 421 kts | 58° |
| 2026-04-25 09:06 | 44.76990 | 3.56624 | 25992 ft | 423 kts | 58° |
| 2026-04-25 09:06 | 44.78424 | 3.60246 | 26407 ft | 425 kts | 58° |
| 2026-04-25 09:06 | 44.79864 | 3.63886 | 26817 ft | 427 kts | 58° |
| 2026-04-25 09:07 | 44.81246 | 3.67371 | 27201 ft | 428 kts | 58° |
| 2026-04-25 09:07 | 44.82699 | 3.71041 | 27600 ft | 431 kts | 59° |
| 2026-04-25 09:07 | 44.84158 | 3.74731 | 27999 ft | 433 kts | 59° |
| 2026-04-25 09:07 | 44.85623 | 3.78448 | 28392 ft | 435 kts | 59° |
| 2026-04-25 09:08 | 44.87096 | 3.82189 | 28781 ft | 437 kts | 59° |
| 2026-04-25 09:08 | 44.88572 | 3.85942 | 29169 ft | 439 kts | 59° |
| 2026-04-25 09:08 | 44.90052 | 3.89711 | 29542 ft | 441 kts | 59° |
| 2026-04-25 09:08 | 44.91540 | 3.93506 | 29918 ft | 443 kts | 59° |
| 2026-04-25 09:09 | 44.92996 | 3.97216 | 30281 ft | 445 kts | 59° |
| 2026-04-25 09:09 | 44.94494 | 4.01038 | 30562 ft | 447 kts | 59° |
| 2026-04-25 09:09 | 44.95999 | 4.04890 | 30850 ft | 449 kts | 60° |
| 2026-04-25 09:09 | 44.97507 | 4.08761 | 31127 ft | 451 kts | 60° |
| 2026-04-25 09:10 | 44.99007 | 4.12616 | 31393 ft | 453 kts | 60° |
| 2026-04-25 09:10 | 45.00525 | 4.16522 | 31712 ft | 453 kts | 60° |
| 2026-04-25 09:10 | 45.02038 | 4.20425 | 32088 ft | 452 kts | 60° |
| 2026-04-25 09:10 | 45.03547 | 4.24323 | 32464 ft | 452 kts | 60° |
| 2026-04-25 09:11 | 45.06556 | 4.32095 | 33186 ft | 450 kts | 61° |
| 2026-04-25 09:11 | 45.08054 | 4.35970 | 33551 ft | 450 kts | 61° |
| 2026-04-25 09:11 | 45.09535 | 4.39809 | 33912 ft | 449 kts | 62° |
| 2026-04-25 09:12 | 45.11050 | 4.43739 | 34268 ft | 449 kts | 62° |
| 2026-04-25 09:12 | 45.12524 | 4.47567 | 34577 ft | 448 kts | 62° |
| 2026-04-25 09:12 | 45.14008 | 4.51436 | 34885 ft | 447 kts | 62° |
| 2026-04-25 09:12 | 45.15494 | 4.55312 | 35090 ft | 447 kts | 62° |
| 2026-04-25 09:13 | 45.18424 | 4.62967 | 35133 ft | 438 kts | 63° |
| 2026-04-25 09:13 | 45.21321 | 4.70558 | 35125 ft | 437 kts | 63° |
| 2026-04-25 09:14 | 45.24203 | 4.78145 | 35131 ft | 437 kts | 63° |
| 2026-04-25 09:14 | 45.26614 | 4.84500 | 35132 ft | 436 kts | 63° |
| 2026-04-25 09:15 | 45.29473 | 4.92033 | 35131 ft | 436 kts | 63° |
| 2026-04-25 09:15 | 45.32338 | 4.99619 | 35136 ft | 436 kts | 63° |
| 2026-04-25 09:16 | 45.35196 | 5.07218 | 35134 ft | 435 kts | 64° |
| 2026-04-25 09:16 | 45.38054 | 5.14808 | 35136 ft | 435 kts | 64° |
| 2026-04-25 09:17 | 45.42323 | 5.26192 | 35133 ft | 435 kts | 64° |
| 2026-04-25 09:18 | 45.45151 | 5.33795 | 35132 ft | 434 kts | 64° |
| 2026-04-25 09:18 | 45.48019 | 5.41371 | 35126 ft | 435 kts | 59° |
| 2026-04-25 09:19 | 45.51998 | 5.47867 | 35121 ft | 439 kts | 43° |
| 2026-04-25 09:19 | 45.56497 | 5.53573 | 35118 ft | 439 kts | 43° |
| 2026-04-25 09:20 | 45.61041 | 5.59388 | 35122 ft | 439 kts | 43° |
| 2026-04-25 09:20 | 45.65594 | 5.65216 | 35121 ft | 439 kts | 43° |
| 2026-04-25 09:21 | 45.70113 | 5.71018 | 35125 ft | 439 kts | 43° |
| 2026-04-25 09:21 | 45.74641 | 5.76846 | 35130 ft | 440 kts | 43° |
| 2026-04-25 09:22 | 45.79164 | 5.82657 | 35138 ft | 440 kts | 43° |
| 2026-04-25 09:22 | 45.83717 | 5.88500 | 35132 ft | 440 kts | 43° |
| 2026-04-25 09:23 | 45.88266 | 5.94368 | 35135 ft | 439 kts | 43° |
| 2026-04-25 09:23 | 45.92807 | 6.00248 | 35136 ft | 439 kts | 43° |
| 2026-04-25 09:24 | 45.97338 | 6.06129 | 35129 ft | 439 kts | 43° |
| 2026-04-25 09:24 | 46.01874 | 6.12020 | 35131 ft | 439 kts | 43° |
| 2026-04-25 09:25 | 46.06596 | 6.17581 | 35139 ft | 440 kts | 31° |
| 2026-04-25 09:25 | 46.12222 | 6.20815 | 35135 ft | 439 kts | 11° |
| 2026-04-25 09:26 | 46.18325 | 6.21436 | 35131 ft | 439 kts | 0° |
| 2026-04-25 09:26 | 46.24429 | 6.21592 | 35131 ft | 439 kts | 1° |
| 2026-04-25 09:27 | 46.30539 | 6.21761 | 35133 ft | 439 kts | 1° |
| 2026-04-25 09:27 | 46.36572 | 6.21943 | 35138 ft | 439 kts | 0° |
| 2026-04-25 09:28 | 46.42675 | 6.22116 | 35147 ft | 438 kts | 0° |
| 2026-04-25 09:28 | 46.48698 | 6.22285 | 35151 ft | 438 kts | 0° |
| 2026-04-25 09:29 | 46.54772 | 6.22466 | 35155 ft | 438 kts | 0° |
| 2026-04-25 09:29 | 46.60742 | 6.22641 | 35156 ft | 438 kts | 0° |
| 2026-04-25 09:30 | 46.66794 | 6.22804 | 35152 ft | 437 kts | 360° |
| 2026-04-25 09:30 | 46.72778 | 6.22954 | 35155 ft | 437 kts | 0° |
| 2026-04-25 09:31 | 46.78857 | 6.23134 | 35157 ft | 437 kts | 0° |
| 2026-04-25 09:31 | 46.84792 | 6.23308 | 35119 ft | 424 kts | 357° |
| 2026-04-25 09:32 | 46.89663 | 6.23445 | 35137 ft | 419 kts | 357° |
| 2026-04-25 09:32 | 46.95477 | 6.23609 | 35135 ft | 418 kts | 358° |
| 2026-04-25 09:33 | 47.01290 | 6.23777 | 35135 ft | 417 kts | 358° |
| 2026-04-25 09:33 | 47.07002 | 6.22939 | 35137 ft | 411 kts | 342° |
| 2026-04-25 09:34 | 47.12222 | 6.19697 | 35122 ft | 407 kts | 332° |
| 2026-04-25 09:34 | 47.17302 | 6.16017 | 35119 ft | 408 kts | 332° |
| 2026-04-25 09:35 | 47.22403 | 6.12320 | 34857 ft | 410 kts | 332° |
| 2026-04-25 09:35 | 47.24895 | 6.10520 | 34616 ft | 409 kts | 333° |
| 2026-04-25 09:35 | 47.27450 | 6.08679 | 34385 ft | 408 kts | 333° |
| 2026-04-25 09:35 | 47.30076 | 6.07105 | 34141 ft | 408 kts | 342° |
| 2026-04-25 09:36 | 47.32848 | 6.06255 | 33878 ft | 408 kts | 352° |
| 2026-04-25 09:36 | 47.35680 | 6.06147 | 33600 ft | 408 kts | 2° |
| 2026-04-25 09:36 | 47.38481 | 6.06773 | 33329 ft | 407 kts | 12° |
| 2026-04-25 09:36 | 47.41161 | 6.08127 | 33065 ft | 408 kts | 22° |
| 2026-04-25 09:37 | 47.43681 | 6.10031 | 32804 ft | 406 kts | 25° |
| 2026-04-25 09:37 | 47.46162 | 6.11956 | 32550 ft | 403 kts | 25° |
| 2026-04-25 09:37 | 47.48638 | 6.13871 | 32297 ft | 400 kts | 25° |
| 2026-04-25 09:37 | 47.51095 | 6.15772 | 32047 ft | 397 kts | 25° |
| 2026-04-25 09:38 | 47.53501 | 6.17636 | 31798 ft | 394 kts | 25° |
| 2026-04-25 09:38 | 47.55918 | 6.19511 | 31542 ft | 391 kts | 25° |
| 2026-04-25 09:38 | 47.58319 | 6.21377 | 31305 ft | 388 kts | 25° |
| 2026-04-25 09:38 | 47.60700 | 6.23228 | 31064 ft | 385 kts | 25° |
| 2026-04-25 09:39 | 47.63061 | 6.25064 | 30822 ft | 382 kts | 25° |
| 2026-04-25 09:39 | 47.65411 | 6.26889 | 30581 ft | 380 kts | 25° |
| 2026-04-25 09:39 | 47.67795 | 6.28526 | 30351 ft | 375 kts | 18° |
| 2026-04-25 09:40 | 47.72837 | 6.29956 | 29803 ft | 368 kts | 2° |
| 2026-04-25 09:40 | 47.75387 | 6.30194 | 29520 ft | 366 kts | 3° |
| 2026-04-25 09:40 | 47.77919 | 6.30440 | 29213 ft | 361 kts | 3° |
| 2026-04-25 09:40 | 47.80408 | 6.30683 | 28786 ft | 356 kts | 3° |
| 2026-04-25 09:41 | 47.82862 | 6.30925 | 28369 ft | 351 kts | 3° |
| 2026-04-25 09:41 | 47.85235 | 6.31162 | 27960 ft | 347 kts | 3° |
| 2026-04-25 09:41 | 47.87622 | 6.31396 | 27558 ft | 342 kts | 3° |
| 2026-04-25 09:41 | 47.89987 | 6.31625 | 27154 ft | 338 kts | 3° |
| 2026-04-25 09:42 | 47.92323 | 6.31851 | 26764 ft | 335 kts | 3° |
| 2026-04-25 09:42 | 47.94635 | 6.32069 | 26367 ft | 331 kts | 3° |
| 2026-04-25 09:42 | 47.96922 | 6.32283 | 25978 ft | 328 kts | 3° |
| 2026-04-25 09:42 | 47.99192 | 6.32504 | 25560 ft | 326 kts | 3° |
| 2026-04-25 09:43 | 48.01456 | 6.32728 | 25124 ft | 325 kts | 3° |
| 2026-04-25 09:43 | 48.03741 | 6.32956 | 24441 ft | 332 kts | 3° |
| 2026-04-25 09:43 | 48.06046 | 6.33185 | 23988 ft | 332 kts | 3° |
| 2026-04-25 09:43 | 48.08356 | 6.33414 | 23511 ft | 332 kts | 3° |
| 2026-04-25 09:44 | 48.10649 | 6.33643 | 23052 ft | 330 kts | 3° |
| 2026-04-25 09:44 | 48.12932 | 6.33872 | 22619 ft | 327 kts | 3° |
| 2026-04-25 09:44 | 48.15201 | 6.34095 | 22189 ft | 325 kts | 3° |
| 2026-04-25 09:44 | 48.17451 | 6.34314 | 21770 ft | 324 kts | 3° |
| 2026-04-25 09:45 | 48.19697 | 6.34537 | 21349 ft | 323 kts | 3° |
| 2026-04-25 09:45 | 48.21934 | 6.34760 | 20934 ft | 322 kts | 3° |
| 2026-04-25 09:45 | 48.24203 | 6.34984 | 20093 ft | 334 kts | 3° |
| 2026-04-25 09:45 | 48.26582 | 6.35219 | 19156 ft | 350 kts | 3° |
| 2026-04-25 09:46 | 48.29010 | 6.35916 | 18197 ft | 364 kts | 22° |
| 2026-04-25 09:46 | 48.31117 | 6.38096 | 17195 ft | 377 kts | 47° |
| 2026-04-25 09:46 | 48.32460 | 6.41525 | 16210 ft | 390 kts | 71° |
| 2026-04-25 09:46 | 48.32934 | 6.45540 | 15171 ft | 402 kts | 84° |
| 2026-04-25 09:47 | 48.33101 | 6.49856 | 14074 ft | 413 kts | 88° |
| 2026-04-25 09:47 | 48.33107 | 6.54124 | 13209 ft | 415 kts | 90° |
| 2026-04-25 09:47 | 48.33062 | 6.58438 | 12454 ft | 411 kts | 90° |
| 2026-04-25 09:47 | 48.33029 | 6.62713 | 11751 ft | 407 kts | 90° |
| 2026-04-25 09:48 | 48.33034 | 6.66834 | 11508 ft | 379 kts | 89° |
| 2026-04-25 09:48 | 48.33077 | 6.70644 | 11346 ft | 349 kts | 88° |
| 2026-04-25 09:48 | 48.33140 | 6.74151 | 11222 ft | 324 kts | 88° |
| 2026-04-25 09:48 | 48.33210 | 6.77419 | 10958 ft | 306 kts | 87° |
| 2026-04-25 09:49 | 48.33278 | 6.80538 | 10648 ft | 292 kts | 88° |
| 2026-04-25 09:49 | 48.33340 | 6.83559 | 10177 ft | 287 kts | 88° |
| 2026-04-25 09:49 | 48.33398 | 6.86538 | 9637 ft | 284 kts | 88° |
| 2026-04-25 09:49 | 48.33450 | 6.89491 | 9063 ft | 282 kts | 88° |
| 2026-04-25 09:50 | 48.33499 | 6.92422 | 8531 ft | 279 kts | 88° |
| 2026-04-25 09:50 | 48.33545 | 6.95313 | 8156 ft | 273 kts | 88° |
| 2026-04-25 09:50 | 48.33588 | 6.98122 | 8039 ft | 266 kts | 88° |
| 2026-04-25 09:50 | 48.33628 | 7.00868 | 7906 ft | 259 kts | 88° |
| 2026-04-25 09:51 | 48.33665 | 7.03554 | 7782 ft | 254 kts | 88° |
| 2026-04-25 09:51 | 48.33701 | 7.06164 | 7651 ft | 246 kts | 88° |
| 2026-04-25 09:51 | 48.33738 | 7.08693 | 7537 ft | 239 kts | 88° |
| 2026-04-25 09:51 | 48.33776 | 7.11161 | 7408 ft | 233 kts | 88° |
| 2026-04-25 09:52 | 48.33812 | 7.13567 | 7284 ft | 227 kts | 89° |
| 2026-04-25 09:52 | 48.33847 | 7.15924 | 7192 ft | 223 kts | 88° |
| 2026-04-25 09:52 | 48.33878 | 7.18195 | 7067 ft | 211 kts | 89° |
| 2026-04-25 09:52 | 48.33907 | 7.20371 | 6937 ft | 204 kts | 89° |
| 2026-04-25 09:53 | 48.33934 | 7.22444 | 6808 ft | 194 kts | 89° |
| 2026-04-25 09:53 | 48.33961 | 7.24429 | 6696 ft | 186 kts | 89° |
| 2026-04-25 09:53 | 48.33986 | 7.26327 | 6574 ft | 179 kts | 89° |
| 2026-04-25 09:53 | 48.34034 | 7.28124 | 6422 ft | 169 kts | 80° |
| 2026-04-25 09:54 | 48.34429 | 7.29728 | 6218 ft | 160 kts | 56° |
| 2026-04-25 09:54 | 48.35127 | 7.30995 | 5977 ft | 153 kts | 46° |
| 2026-04-25 09:54 | 48.35835 | 7.32186 | 5779 ft | 154 kts | 47° |
| 2026-04-25 09:54 | 48.36544 | 7.33385 | 5488 ft | 151 kts | 46° |
| 2026-04-25 09:55 | 48.37232 | 7.34549 | 5176 ft | 151 kts | 46° |
| 2026-04-25 09:55 | 48.37906 | 7.35691 | 5037 ft | 149 kts | 46° |
| 2026-04-25 09:55 | 48.38596 | 7.36861 | 5033 ft | 150 kts | 46° |
| 2026-04-25 09:55 | 48.39288 | 7.38035 | 5028 ft | 150 kts | 46° |
| 2026-04-25 09:56 | 48.39983 | 7.39213 | 4957 ft | 151 kts | 46° |
| 2026-04-25 09:56 | 48.40677 | 7.40391 | 4779 ft | 150 kts | 46° |
| 2026-04-25 09:56 | 48.41365 | 7.41560 | 4565 ft | 149 kts | 46° |
| 2026-04-25 09:56 | 48.42052 | 7.42728 | 4341 ft | 148 kts | 46° |
| 2026-04-25 09:57 | 48.42741 | 7.43898 | 4150 ft | 152 kts | 48° |
| 2026-04-25 09:57 | 48.43420 | 7.45054 | 3881 ft | 150 kts | 47° |
| 2026-04-25 09:57 | 48.44106 | 7.46219 | 3663 ft | 147 kts | 48° |
| 2026-04-25 09:57 | 48.44786 | 7.47378 | 3414 ft | 145 kts | 47° |
| 2026-04-25 09:58 | 48.45457 | 7.48519 | 3181 ft | 145 kts | 47° |
| 2026-04-25 09:58 | 48.46114 | 7.49640 | 2977 ft | 146 kts | 46° |
| 2026-04-25 09:58 | 48.46785 | 7.50783 | 2740 ft | 145 kts | 47° |
| 2026-04-25 09:58 | 48.47445 | 7.51907 | 2524 ft | 142 kts | 47° |
| 2026-04-25 09:59 | 48.48092 | 7.53010 | 2292 ft | 139 kts | 47° |
| 2026-04-25 09:59 | 48.48714 | 7.54073 | 2091 ft | 138 kts | 47° |
| 2026-04-25 09:59 | 48.49349 | 7.55157 | 1878 ft | 137 kts | 47° |
| 2026-04-25 09:59 | 48.49979 | 7.56234 | 1650 ft | 137 kts | 47° |
| 2026-04-25 10:00 | 48.50606 | 7.57304 | 1431 ft | 136 kts | 47° |
| 2026-04-25 10:00 | 48.51229 | 7.58368 | 1211 ft | 136 kts | 48° |
| 2026-04-25 10:00 | 48.51852 | 7.59433 | 993 ft | 135 kts | 47° |
| 2026-04-25 10:00 | 48.52465 | 7.60481 | 784 ft | 132 kts | 48° |
| 2026-04-25 10:01 | 48.53074 | 7.61524 | 576 ft | 132 kts | 49° |
| 2026-04-25 10:01 | 48.53639 | 7.62489 | 512 ft | 106 kts | 49° |
| 2026-04-25 10:01 | 48.54004 | 7.63112 | 511 ft | 49 kts | 49° |
| 2026-04-25 10:01 | 48.54158 | 7.63375 | 512 ft | 18 kts | 48° |
| 2026-04-25 10:02 | 48.54229 | 7.63381 | 512 ft | 11 kts | 322° |
| 2026-04-25 10:02 | 48.54279 | 7.63311 | 512 ft | 9 kts | 317° |
| 2026-04-25 10:02 | 48.54300 | 7.63228 | 512 ft | 8 kts | 279° |
| 2026-04-25 10:02 | 48.54319 | 7.63155 | 512 ft | 7 kts | 310° |
| 2026-04-25 10:03 | 48.54352 | 7.63111 | 512 ft | 6 kts | 318° |
| 2026-04-25 10:03 | 48.54391 | 7.63059 | 512 ft | 8 kts | 318° |
| 2026-04-25 10:03 | 48.54436 | 7.63051 | 512 ft | 6 kts | 13° |
| 2026-04-25 10:03 | 48.54471 | 7.63076 | 512 ft | 5 kts | 39° |
| 2026-04-25 10:04 | 48.54493 | 7.63110 | 512 ft | 4 kts | 42° |
| 2026-04-25 10:04 | 48.54518 | 7.63088 | 512 ft | 5 kts | 299° |
| 2026-04-25 10:04 | 48.54522 | 7.63043 | 512 ft | 3 kts | 269° |
| 2026-04-25 10:04 | 48.54522 | 7.63041 | 512 ft | 0 kts | 269° |